Time;durP1;ratioP1;P1;durP2;ratioP2;P2;SDS_P1;SDS_P2;PMS_P1;PMS_P2;Temp;Humidity;BMP_temperature;BMP_pressure;BME280_temperature;BME280_humidity;BME280_pressure;Samples;Min_cycle;Max_cycle;Signal;HPM_P1;HPM_P2
2023/11/15 00:01:38;;;;;;;11.90;3.33;;;;;;;9.76;100.00;100794.16;5089919;28;20498;-35
2023/11/15 00:04:03;;;;;;;15.73;3.93;;;;;;;9.77;100.00;100803.06;5090401;28;20021;-35
2023/11/15 00:06:29;;;;;;;14.35;3.42;;;;;;;9.77;100.00;100808.47;5090386;28;20602;-35
2023/11/15 00:08:55;;;;;;;17.38;4.50;;;;;;;9.78;100.00;100810.94;5079133;28;20369;-35
2023/11/15 00:11:20;;;;;;;16.50;3.53;;;;;;;9.77;100.00;100808.47;5076580;28;20024;-35
2023/11/15 00:13:50;;;;;;;15.50;4.13;;;;;;;9.76;100.00;100812.22;5075853;28;20020;-35
2023/11/15 00:16:16;;;;;;;12.70;3.10;;;;;;;9.76;100.00;100817.59;5075814;28;20036;-35
2023/11/15 00:18:42;;;;;;;13.18;3.53;;;;;;;9.75;100.00;100818.66;5076041;28;20050;-35
2023/11/15 00:21:07;;;;;;;15.10;3.72;;;;;;;9.73;100.00;100816.19;5076085;28;20025;-35
2023/11/15 00:23:34;;;;;;;13.38;3.17;;;;;;;9.75;100.00;100821.38;5076008;28;20027;-35
2023/11/15 00:26:00;;;;;;;15.60;4.03;;;;;;;9.74;100.00;100817.84;5076201;28;20028;-35
2023/11/15 00:28:25;;;;;;;16.05;3.72;;;;;;;9.76;100.00;100826.56;5075911;28;20135;-35
2023/11/15 00:30:51;;;;;;;18.50;4.77;;;;;;;9.78;100.00;100824.44;5076530;28;20520;-35
2023/11/15 00:33:16;;;;;;;16.00;3.77;;;;;;;9.79;100.00;100836.06;5075859;28;20029;-35
2023/11/15 00:35:41;;;;;;;15.43;4.00;;;;;;;9.77;100.00;100839.00;5075799;28;20025;-35
2023/11/15 00:38:07;;;;;;;16.80;3.60;;;;;;;9.78;100.00;100839.81;5075748;28;20033;-35
2023/11/15 00:40:34;;;;;;;15.00;3.53;;;;;;;9.76;100.00;100831.09;5076017;28;20637;-35
2023/11/15 00:42:59;;;;;;;11.90;2.78;;;;;;;9.71;100.00;100828.25;5075639;28;20032;-35
2023/11/15 00:45:25;;;;;;;19.90;3.63;;;;;;;9.79;100.00;100836.06;5075976;28;20459;-35
2023/11/15 00:47:51;;;;;;;15.20;2.92;;;;;;;9.78;100.00;100839.81;5075337;28;20080;-35
2023/11/15 00:50:16;;;;;;;12.70;3.70;;;;;;;9.77;100.00;100838.19;5075516;28;20476;-35
2023/11/15 00:52:42;;;;;;;14.52;2.90;;;;;;;9.78;100.00;100848.75;5075510;28;20033;-36
2023/11/15 00:55:08;;;;;;;16.70;3.53;;;;;;;9.70;100.00;100835.53;5075466;28;20124;-35
2023/11/15 00:57:34;;;;;;;10.60;2.78;;;;;;;9.74;100.00;100850.25;5075818;28;20534;-35
2023/11/15 01:00:00;;;;;;;17.17;3.05;;;;;;;9.74;100.00;100849.44;5075886;28;20029;-35
2023/11/15 01:02:32;;;;;;;17.63;4.45;;;;;;;9.71;100.00;100847.16;5075841;28;20032;-35
2023/11/15 01:04:58;;;;;;;17.00;3.55;;;;;;;9.72;100.00;100846.97;5075754;28;20066;-35
2023/11/15 01:07:24;;;;;;;11.20;2.85;;;;;;;9.66;100.00;100847.00;5075978;28;20024;-35
2023/11/15 01:09:49;;;;;;;13.35;2.95;;;;;;;9.73;100.00;100863.97;5075182;28;20374;-35
2023/11/15 01:12:15;;;;;;;16.55;3.10;;;;;;;9.74;100.00;100865.63;5075666;28;20070;-35
2023/11/15 01:14:42;;;;;;;14.30;2.90;;;;;;;9.74;100.00;100863.75;5075561;28;20465;-35
2023/11/15 01:17:08;;;;;;;13.27;3.00;;;;;;;9.77;100.00;100870.59;5074890;28;20058;-35
2023/11/15 01:19:34;;;;;;;19.67;3.72;;;;;;;9.77;100.00;100876.81;5073900;28;20028;-35
2023/11/15 01:21:59;;;;;;;16.70;3.93;;;;;;;9.80;100.00;100889.84;5075501;28;20028;-35
2023/11/15 01:24:25;;;;;;;12.55;2.97;;;;;;;9.74;100.00;100881.84;5074865;28;20674;-35
2023/11/15 01:26:52;;;;;;;14.57;3.85;;;;;;;9.80;100.00;100897.13;5075630;28;20024;-35
2023/11/15 01:29:17;;;;;;;16.73;3.58;;;;;;;9.79;100.00;100900.88;5074701;28;20028;-35
2023/11/15 01:31:42;;;;;;;14.30;3.40;;;;;;;9.73;100.00;100893.69;5075534;28;20460;-35
2023/11/15 01:34:08;;;;;;;16.67;3.70;;;;;;;9.81;100.00;100904.19;5074653;28;20362;-35
2023/11/15 01:36:34;;;;;;;23.93;4.40;;;;;;;9.80;100.00;100907.94;5075096;28;20063;-35
2023/11/15 01:39:55;;;;;;;13.98;3.33;;;;;;;9.82;100.00;100916.66;5074524;28;20031;-35
2023/11/15 01:42:21;;;;;;;11.55;2.70;;;;;;;9.81;100.00;100917.72;5074435;28;20036;-35
2023/11/15 01:44:47;;;;;;;10.97;2.70;;;;;;;9.81;100.00;100920.41;5074717;28;20025;-35
2023/11/15 01:47:14;;;;;;;14.88;2.97;;;;;;;9.81;100.00;100925.81;5074417;28;20059;-35
2023/11/15 01:49:40;;;;;;;14.32;3.38;;;;;;;9.82;100.00;100926.63;5074215;28;20090;-35
2023/11/15 01:52:06;;;;;;;18.98;3.20;;;;;;;9.81;100.00;100931.22;5074545;28;20024;-35
2023/11/15 01:54:31;;;;;;;15.75;3.05;;;;;;;9.82;100.00;100926.63;5074178;28;20078;-35
2023/11/15 01:56:57;;;;;;;11.68;3.10;;;;;;;9.77;100.00;100935.41;5074058;28;20114;-35
2023/11/15 01:59:22;;;;;;;17.05;3.50;;;;;;;9.83;100.00;100949.88;5074109;28;20036;-35
2023/11/15 02:01:51;;;;;;;16.73;3.60;;;;;;;9.75;100.00;100940.19;5073883;28;20035;-35
2023/11/15 02:04:16;;;;;;;18.05;3.22;;;;;;;9.82;100.00;100959.88;5073727;28;20036;-35
2023/11/15 02:06:42;;;;;;;17.70;3.13;;;;;;;9.80;100.00;100961.94;5074908;28;20038;-35
2023/11/15 02:09:08;;;;;;;13.00;3.20;;;;;;;9.68;100.00;100944.84;5073916;28;20032;-35
2023/11/15 02:11:33;;;;;;;;;;;;;;;9.85;100.00;100969.38;5075243;28;20345;-35
2023/11/15 02:13:59;;;;;;;22.10;4.60;;;;;;;9.79;100.00;100969.22;5073884;28;20396;-35
2023/11/15 02:16:25;;;;;;;14.47;3.63;;;;;;;9.80;100.00;100978.97;5074403;28;20074;-35
2023/11/15 02:18:50;;;;;;;14.82;3.45;;;;;;;9.74;100.00;100965.53;5073810;28;20742;-35
2023/11/15 02:21:16;;;;;;;18.65;3.65;;;;;;;9.77;100.00;100975.91;5074118;28;20021;-35
2023/11/15 02:23:45;;;;;;;14.85;2.90;;;;;;;9.77;100.00;100978.63;5074054;28;20024;-35
2023/11/15 02:26:11;;;;;;;17.25;3.38;;;;;;;9.68;100.00;100963.75;5073529;28;20506;-35
2023/11/15 02:28:37;;;;;;;;;;;;;;;9.78;100.00;100988.38;5073830;28;20626;-35
2023/11/15 02:31:03;;;;;;;14.52;3.40;;;;;;;9.77;100.00;100984.84;5073734;28;19912;-35
2023/11/15 02:33:28;;;;;;;17.10;3.40;;;;;;;9.76;100.00;100990.44;5073645;28;20079;-35
2023/11/15 02:35:54;;;;;;;12.13;2.80;;;;;;;9.75;100.00;100986.91;5073607;28;20043;-35
2023/11/15 02:38:19;;;;;;;15.53;2.93;;;;;;;9.75;100.00;100996.91;5073815;28;20267;-35
2023/11/15 02:40:45;;;;;;;12.43;3.10;;;;;;;9.70;100.00;100989.47;5074140;28;20096;-35
2023/11/15 02:43:11;;;;;;;15.30;2.63;;;;;;;9.74;100.00;100995.25;5073497;28;20025;-35
2023/11/15 02:45:36;;;;;;;18.13;3.50;;;;;;;9.72;100.00;100992.78;5074113;28;20086;-35
2023/11/15 02:48:02;;;;;;;11.23;3.53;;;;;;;9.74;100.00;100997.94;5073481;28;20029;-35
2023/11/15 02:50:29;;;;;;;16.70;3.13;;;;;;;9.69;100.00;100995.91;5073518;28;20251;-35
2023/11/15 02:52:55;;;;;;;18.30;3.38;;;;;;;9.74;100.00;101011.44;5073458;28;20059;-35
2023/11/15 02:55:21;;;;;;;17.10;3.42;;;;;;;9.75;100.00;101013.09;5074268;28;20032;-35
2023/11/15 02:57:46;;;;;;;11.82;3.08;;;;;;;9.75;100.00;100999.59;5074403;28;20106;-35
2023/11/15 03:00:12;;;;;;;14.73;3.70;;;;;;;9.74;100.00;101008.75;5073997;28;20072;-35
2023/11/15 03:02:37;;;;;;;14.55;2.83;;;;;;;9.66;100.00;100992.81;5073572;28;20059;-35
2023/11/15 03:05:03;;;;;;;15.20;3.43;;;;;;;9.75;100.00;101005.81;5074227;28;20025;-35
2023/11/15 03:07:28;;;;;;;17.15;3.10;;;;;;;9.75;100.00;101010.41;5073283;28;20270;-35
2023/11/15 03:09:54;;;;;;;12.27;2.60;;;;;;;9.76;100.00;101009.34;5073566;28;20024;-35
2023/11/15 03:12:19;;;;;;;13.33;3.17;;;;;;;9.74;100.00;101012.28;5072981;28;20072;-35
2023/11/15 03:14:45;;;;;;;17.85;3.40;;;;;;;9.66;100.00;101003.63;5073129;28;20033;-35
2023/11/15 03:17:18;;;;;;;16.33;2.65;;;;;;;9.59;100.00;100997.47;5073107;28;20043;-35
2023/11/15 03:19:45;;;;;;;13.77;2.70;;;;;;;9.73;100.00;101021.44;5073052;28;20024;-35
2023/11/15 03:22:12;;;;;;;;;;;;;;;9.77;100.00;101029.94;5073809;28;20384;-35
2023/11/15 03:24:38;;;;;;;14.23;3.10;;;;;;;9.73;100.00;101026.00;5073071;28;19912;-35
2023/11/15 03:27:04;;;;;;;17.77;3.05;;;;;;;9.76;100.00;101025.53;5073078;28;20036;-35
2023/11/15 03:29:31;;;;;;;12.32;3.03;;;;;;;9.71;100.00;101019.97;5073056;28;20078;-35
2023/11/15 03:31:57;;;;;;;10.73;3.03;;;;;;;9.73;100.00;101031.41;5073358;28;20068;-35
2023/11/15 03:34:22;;;;;;;15.30;3.47;;;;;;;9.75;100.00;101038.22;5073112;28;20058;-35
2023/11/15 03:36:47;;;;;;;12.23;2.97;;;;;;;9.69;100.00;101032.88;5073241;28;20484;-35
2023/11/15 03:39:13;;;;;;;11.83;2.47;;;;;;;9.76;100.00;101047.16;5073298;28;20029;-35
2023/11/15 03:41:38;;;;;;;17.87;3.63;;;;;;;9.77;100.00;101048.84;5073358;28;20765;-35
2023/11/15 03:44:04;;;;;;;16.23;3.08;;;;;;;9.76;100.00;101042.59;5075858;28;20051;-35
2023/11/15 03:46:29;;;;;;;14.00;3.30;;;;;;;9.74;100.00;101055.47;5076700;28;20032;-35
2023/11/15 03:48:55;;;;;;;11.77;3.07;;;;;;;9.71;100.00;101038.88;5076715;28;20103;-35
2023/11/15 03:51:20;;;;;;;17.55;3.90;;;;;;;9.69;100.00;101032.88;5077469;28;20052;-35
2023/11/15 03:53:45;;;;;;;16.23;4.13;;;;;;;9.74;100.00;101046.56;5076309;28;20456;-35
2023/11/15 03:56:11;;;;;;;19.43;3.37;;;;;;;9.73;100.00;101058.41;5076528;28;20465;-35
2023/11/15 03:58:37;;;;;;;13.70;3.23;;;;;;;9.73;100.00;101058.41;5076791;28;20082;-35
2023/11/15 04:01:04;;;;;;;18.25;3.90;;;;;;;9.70;100.00;101064.25;5076709;28;20305;-35
2023/11/15 04:03:30;;;;;;;15.98;3.85;;;;;;;9.73;100.00;101066.50;5076328;28;20028;-35
2023/11/15 04:05:55;;;;;;;18.60;3.53;;;;;;;9.74;100.00;101071.69;5076470;28;20033;-35
2023/11/15 04:08:21;;;;;;;14.88;4.25;;;;;;;9.74;100.00;101076.25;5076591;28;20109;-35
2023/11/15 04:10:47;;;;;;;13.07;3.05;;;;;;;9.73;100.00;101072.75;5077162;28;20352;-35
2023/11/15 04:13:12;;;;;;;;;;;;;;;9.76;100.00;101074.16;5076633;28;20056;-35
2023/11/15 04:15:38;;;;;;;14.75;4.03;;;;;;;9.50;100.00;101049.03;5076362;28;19912;-35
2023/11/15 04:18:03;;;;;;;17.57;3.40;;;;;;;9.70;100.00;101080.44;5076191;28;20021;-35
2023/11/15 04:20:30;;;;;;;16.80;3.67;;;;;;;9.66;100.00;101080.09;5076941;28;20020;-35
2023/11/15 04:22:58;;;;;;;18.92;4.07;;;;;;;9.69;100.00;101078.78;5076051;28;20380;-35
2023/11/15 04:25:24;;;;;;;15.68;3.95;;;;;;;9.69;100.00;101085.03;5076894;28;20032;-35
2023/11/15 04:27:50;;;;;;;;;;;;;;;9.72;100.00;101084.59;5075151;28;20350;-35
2023/11/15 04:30:15;;;;;;;15.20;3.58;;;;;;;9.69;100.00;101089.59;5076248;28;19954;-35
2023/11/15 04:32:41;;;;;;;12.32;3.67;;;;;;;9.66;100.00;101085.47;5075902;28;20544;-35
2023/11/15 04:35:07;;;;;;;16.30;3.92;;;;;;;9.65;100.00;101086.50;5075861;28;20056;-35
2023/11/15 04:37:36;;;;;;;13.18;3.10;;;;;;;9.65;100.00;101102.69;5076263;28;20035;-35
2023/11/15 04:40:01;;;;;;;14.63;3.53;;;;;;;9.49;100.00;101077.06;5075727;28;20116;-35
2023/11/15 04:42:26;;;;;;;15.52;3.65;;;;;;;9.65;100.00;101109.97;5076565;28;20107;-35
2023/11/15 04:44:52;;;;;;;15.83;4.60;;;;;;;9.62;100.00;101105.03;5075700;28;20030;-35
2023/11/15 04:47:18;;;;;;;14.48;3.67;;;;;;;9.69;100.00;101138.22;5076213;28;20107;-35
2023/11/15 04:49:45;;;;;;;14.60;3.72;;;;;;;9.67;100.00;101119.53;5075203;28;20082;-35
2023/11/15 04:52:11;;;;;;;16.20;5.75;;;;;;;9.67;100.00;101113.31;5075780;28;20112;-35
2023/11/15 04:54:36;;;;;;;13.45;4.55;;;;;;;9.67;100.00;101119.53;5075004;28;20529;-35
2023/11/15 04:57:03;;;;;;;18.35;6.13;;;;;;;9.38;100.00;101085.88;5075622;28;20045;-35
2023/11/15 04:59:29;;;;;;;13.15;4.85;;;;;;;9.48;100.00;101105.13;5074681;28;20082;-35
2023/11/15 05:01:54;;;;;;;16.30;5.68;;;;;;;9.64;100.00;101127.22;5075037;28;20385;-35
2023/11/15 05:04:20;;;;;;;16.75;6.72;;;;;;;9.63;100.00;101128.28;5075554;28;20063;-35
2023/11/15 05:06:46;;;;;;;15.90;5.82;;;;;;;9.62;100.00;101127.47;5075276;28;20093;-35
2023/11/15 05:09:12;;;;;;;18.95;5.93;;;;;;;9.62;100.00;101126.63;5075381;28;20024;-35
2023/11/15 05:11:38;;;;;;;16.13;6.60;;;;;;;9.62;100.00;101132.03;5075376;28;20037;-35
2023/11/15 05:14:03;;;;;;;16.07;6.13;;;;;;;9.62;100.00;101137.44;5075105;28;20028;-35
2023/11/15 05:16:29;;;;;;;18.63;6.80;;;;;;;9.59;100.00;101140.56;5074942;28;20298;-35
2023/11/15 05:18:54;;;;;;;16.05;6.45;;;;;;;9.55;100.00;101137.47;5074952;28;20021;-35
2023/11/15 05:21:20;;;;;;;23.30;7.53;;;;;;;9.58;100.00;101144.31;5075211;28;20509;-35
2023/11/15 05:23:45;;;;;;;14.00;7.10;;;;;;;9.59;100.00;101148.66;5074636;28;20380;-35
2023/11/15 05:26:12;;;;;;;16.27;6.82;;;;;;;9.58;100.00;101149.72;5075069;28;20047;-35
2023/11/15 05:28:37;;;;;;;21.60;7.80;;;;;;;9.57;100.00;101150.75;5075060;28;20107;-35
2023/11/15 05:31:03;;;;;;;17.70;8.53;;;;;;;9.57;100.00;101148.06;5075093;28;20099;-35
2023/11/15 05:33:28;;;;;;;20.83;8.48;;;;;;;9.58;100.00;101158.63;5075233;28;20746;-35
2023/11/15 05:35:54;;;;;;;18.77;8.27;;;;;;;9.50;100.00;101143.50;5075181;28;20368;-35
2023/11/15 05:38:19;;;;;;;15.77;8.60;;;;;;;9.57;100.00;101161.56;5074563;28;20754;-35
2023/11/15 05:40:45;;;;;;;22.13;9.00;;;;;;;9.59;100.00;101157.59;5075179;28;20033;-35
2023/11/15 05:43:11;;;;;;;;;;;;;;;9.59;100.00;101160.28;5074686;28;20059;-35
2023/11/15 05:45:36;;;;;;;15.65;8.82;;;;;;;9.53;100.00;101151.19;5074518;28;19908;-35
2023/11/15 05:48:02;;;;;;;15.37;8.63;;;;;;;9.44;100.00;101130.06;5074475;28;20388;-35
2023/11/15 05:50:27;;;;;;;18.55;8.85;;;;;;;9.50;100.00;101154.31;5075183;28;20102;-35
2023/11/15 05:52:53;;;;;;;14.95;8.27;;;;;;;9.53;100.00;101155.75;5073936;28;20028;-35
2023/11/15 05:55:18;;;;;;;19.60;7.93;;;;;;;9.50;100.00;101161.56;5074334;28;20032;-35
2023/11/15 05:57:45;;;;;;;18.80;7.57;;;;;;;9.50;100.00;101157.00;5074380;28;20059;-35
2023/11/15 06:00:18;;;;;;;18.60;7.13;;;;;;;9.48;100.00;101158.28;5073696;28;20262;-35
2023/11/15 06:02:46;;;;;;;18.77;8.23;;;;;;;9.45;100.00;101175.72;5074334;28;20139;-36
2023/11/15 06:05:11;;;;;;;18.48;6.72;;;;;;;9.43;100.00;101161.63;5073367;28;20032;-35
2023/11/15 06:07:37;;;;;;;17.98;6.15;;;;;;;9.43;100.00;101177.00;5073489;28;20040;-35
2023/11/15 06:10:02;;;;;;;18.63;7.00;;;;;;;9.28;100.00;101143.00;5074049;28;20021;-35
2023/11/15 06:12:28;;;;;;;14.52;6.10;;;;;;;9.41;100.00;101169.09;5073726;28;20034;-36
2023/11/15 06:14:54;;;;;;;23.00;6.30;;;;;;;9.43;100.00;101179.69;5073898;28;20032;-36
2023/11/15 06:17:20;;;;;;;16.25;5.88;;;;;;;9.43;100.00;101187.78;5073821;28;20024;-35
2023/11/15 06:19:45;;;;;;;16.90;6.70;;;;;;;9.29;100.00;101166.25;5072584;28;20036;-36
2023/11/15 06:22:11;;;;;;;15.02;5.97;;;;;;;9.43;100.00;101185.91;5074158;28;20086;-36
2023/11/15 06:24:40;;;;;;;18.60;7.30;;;;;;;9.43;100.00;101187.78;5073838;28;20033;-35
2023/11/15 06:27:06;;;;;;;20.00;6.32;;;;;;;9.43;100.00;101183.22;5073526;28;20032;-35
2023/11/15 06:29:33;;;;;;;17.05;7.30;;;;;;;9.41;100.00;101182.59;5074461;28;20339;-35
2023/11/15 06:31:59;;;;;;;16.77;6.55;;;;;;;9.41;100.00;101182.59;5073656;28;20024;-35
2023/11/15 06:34:24;;;;;;;19.25;6.32;;;;;;;9.40;100.00;101183.63;5073670;28;20035;-36
2023/11/15 06:36:55;;;;;;;16.60;6.40;;;;;;;9.38;100.00;101184.91;5073915;28;20024;-36
2023/11/15 06:39:21;;;;;;;18.50;6.45;;;;;;;9.36;100.00;101187.81;5073561;28;20025;-36
2023/11/15 06:41:46;;;;;;;18.05;6.82;;;;;;;9.28;100.00;101177.28;5073575;28;20070;-36
2023/11/15 06:44:12;;;;;;;17.98;6.30;;;;;;;9.31;100.00;101187.63;5073801;28;20024;-35
2023/11/15 06:46:40;;;;;;;17.63;6.25;;;;;;;9.35;100.00;101188.03;5074230;28;20461;-36
2023/11/15 06:49:06;;;;;;;22.02;6.60;;;;;;;9.36;100.00;101198.59;5073462;28;20024;-35
2023/11/15 06:51:32;;;;;;;;;;;;;;;9.39;100.00;101202.75;5073875;28;20103;-36
2023/11/15 06:53:57;;;;;;;20.02;6.63;;;;;;;9.27;100.00;101194.47;5073730;28;19954;-35
2023/11/15 06:56:23;;;;;;;21.85;6.30;;;;;;;9.33;100.00;101209.84;5073840;28;20063;-35
2023/11/15 06:58:48;;;;;;;23.80;6.33;;;;;;;9.32;100.00;101213.59;5073492;28;20063;-35
2023/11/15 07:01:13;;;;;;;19.77;6.17;;;;;;;9.32;100.00;101221.69;5073457;28;20020;-35
2023/11/15 07:03:43;;;;;;;21.47;6.67;;;;;;;9.29;100.00;101222.09;5073410;28;20024;-35
2023/11/15 07:06:09;;;;;;;17.55;6.13;;;;;;;9.27;100.00;101225.03;5073833;28;20032;-35
2023/11/15 07:08:35;;;;;;;19.38;7.00;;;;;;;9.26;100.00;101241.41;5073532;28;20381;-35
2023/11/15 07:11:01;;;;;;;18.58;5.60;;;;;;;9.18;100.00;101222.78;5074109;28;20043;-36
2023/11/15 07:13:27;;;;;;;15.32;5.90;;;;;;;9.23;100.00;101245.38;5073008;28;20032;-36
2023/11/15 07:15:53;;;;;;;15.20;5.25;;;;;;;9.21;100.00;101246.59;5073725;28;20029;-35
2023/11/15 07:18:21;;;;;;;18.25;6.95;;;;;;;9.14;100.00;101243.94;5074527;28;20030;-36
2023/11/15 07:20:47;;;;;;;17.58;6.38;;;;;;;9.19;100.00;101251.41;5077208;28;20035;-36
2023/11/15 07:23:12;;;;;;;13.50;5.80;;;;;;;9.17;100.00;101254.28;5077238;28;20028;-35
2023/11/15 07:25:37;;;;;;;19.70;6.10;;;;;;;9.17;100.00;101262.38;5077181;28;20743;-36
2023/11/15 07:28:03;;;;;;;17.43;6.03;;;;;;;9.18;100.00;101263.25;5076995;28;20028;-35
2023/11/15 07:30:31;;;;;;;20.90;6.57;;;;;;;9.20;100.00;101266.53;5077114;28;20048;-36
2023/11/15 07:32:57;;;;;;;15.27;5.82;;;;;;;9.21;100.00;101265.50;5076603;28;20043;-36
2023/11/15 07:35:25;;;;;;;17.38;6.07;;;;;;;9.25;100.00;101267.56;5076712;28;20029;-36
2023/11/15 07:37:51;;;;;;;14.30;5.68;;;;;;;9.31;100.00;101282.06;5077095;28;20414;-35
2023/11/15 07:40:16;;;;;;;22.37;6.90;;;;;;;9.32;100.00;101285.59;5076704;28;20040;-35
2023/11/15 07:42:42;;;;;;;15.88;6.20;;;;;;;9.29;100.00;101271.50;5076401;28;20059;-35
2023/11/15 07:45:11;;;;;;;17.63;7.00;;;;;;;9.37;100.00;101288.50;5077093;28;20032;-35
2023/11/15 07:47:37;;;;;;;15.45;6.22;;;;;;;9.37;100.00;101285.78;5076474;28;20063;-35
2023/11/15 07:50:03;;;;;;;14.95;6.10;;;;;;;9.39;100.00;101287.25;5076442;28;20059;-36
2023/11/15 07:52:32;;;;;;;16.98;5.85;;;;;;;9.39;100.00;101278.31;5077256;28;20024;-36
2023/11/15 07:54:58;;;;;;;14.68;5.75;;;;;;;9.43;100.00;101280.41;5076551;28;20024;-36
2023/11/15 07:57:24;;;;;;;17.35;6.78;;;;;;;9.47;100.00;101286.19;5076386;28;20051;-35
2023/11/15 07:59:50;;;;;;;15.20;6.35;;;;;;;9.43;100.00;101266.91;5076483;28;20070;-35
2023/11/15 08:02:16;;;;;;;15.10;6.15;;;;;;;9.42;100.00;101272.50;5076806;28;20040;-35
2023/11/15 08:04:42;;;;;;;14.85;6.05;;;;;;;9.61;100.00;101297.75;5076342;28;20028;-35
2023/11/15 08:07:08;;;;;;;15.20;5.88;;;;;;;9.61;100.00;101297.75;5076101;28;20105;-35
2023/11/15 08:09:33;;;;;;;13.63;5.53;;;;;;;9.62;100.00;101311.06;5076383;28;20024;-35
2023/11/15 08:11:58;;;;;;;15.87;6.40;;;;;;;9.63;100.00;101301.09;5076070;28;20063;-36
2023/11/15 08:14:25;;;;;;;13.73;5.28;;;;;;;9.60;100.00;101302.34;5075942;28;20370;-35
2023/11/15 08:16:51;;;;;;;14.38;5.57;;;;;;;9.48;100.00;101294.09;5076144;28;20031;-36
2023/11/15 08:19:18;;;;;;;;;;;;;;;9.62;100.00;101318.34;5076850;28;20025;-35
2023/11/15 08:21:44;;;;;;;15.70;6.55;;;;;;;9.52;100.00;101314.22;5076632;28;19931;-35
2023/11/15 08:24:13;;;;;;;11.40;5.10;;;;;;;9.49;100.00;101316.50;5076042;28;20031;-36
2023/11/15 08:26:39;;;;;;;16.08;5.55;;;;;;;9.51;100.00;101325.22;5075712;28;20046;-35
2023/11/15 08:29:05;;;;;;;12.88;5.88;;;;;;;9.49;100.00;101335.41;5075536;28;20109;-35
2023/11/15 08:31:32;;;;;;;17.95;5.80;;;;;;;9.45;100.00;101329.59;5076519;28;20063;-36
2023/11/15 08:33:57;;;;;;;15.45;6.25;;;;;;;9.42;100.00;101326.47;5075789;28;20033;-35
2023/11/15 08:36:23;;;;;;;16.67;5.63;;;;;;;9.47;100.00;101332.94;5076333;28;20071;-35
2023/11/15 08:38:50;;;;;;;12.57;5.03;;;;;;;9.52;100.00;101337.69;5076024;28;20111;-36
2023/11/15 08:41:16;;;;;;;12.40;5.03;;;;;;;9.57;100.00;101337.88;5076585;28;20078;-35
2023/11/15 08:43:42;;;;;;;15.38;6.60;;;;;;;9.62;100.00;101343.47;5075727;28;20116;-36
2023/11/15 08:46:08;;;;;;;13.13;5.15;;;;;;;9.55;100.00;101321.03;5076293;28;20485;-35
2023/11/15 08:48:33;;;;;;;14.75;4.93;;;;;;;9.74;100.00;101338.22;5074710;28;20029;-35
2023/11/15 08:51:00;;;;;;;9.80;4.50;;;;;;;9.75;100.00;101329.06;5075378;28;20032;-36
2023/11/15 08:53:28;;;;;;;16.05;4.60;;;;;;;9.94;100.00;101343.53;5075491;28;20033;-36
2023/11/15 08:55:55;;;;;;;14.25;4.03;;;;;;;10.00;100.00;101343.53;5075462;28;20025;-36
2023/11/15 08:58:27;;;;;;;9.25;3.78;;;;;;;10.07;100.00;101338.91;5075718;28;20124;-36
2023/11/15 09:00:53;;;;;;;14.13;3.97;;;;;;;9.92;100.00;101319.47;5075689;28;20420;-35
2023/11/15 09:03:18;;;;;;;;;;;;;;;10.22;100.00;101349.44;5075714;28;20078;-36
2023/11/15 09:05:44;;;;;;;13.02;3.67;;;;;;;10.16;100.00;101335.97;5075299;28;19916;-36
2023/11/15 09:08:10;;;;;;;11.77;4.45;;;;;;;10.20;100.00;101350.69;5075276;28;20033;-35
2023/11/15 09:10:36;;;;;;;17.55;5.05;;;;;;;10.13;100.00;101350.72;5075207;28;20423;-35
2023/11/15 09:13:01;;;;;;;12.82;4.32;;;;;;;10.13;100.00;101350.72;5075167;28;20066;-36
2023/11/15 09:15:30;;;;;;;12.10;4.00;;;;;;;10.11;100.00;101352.00;5074872;28;20028;-35
2023/11/15 09:17:56;;;;;;;15.35;4.95;;;;;;;10.04;100.00;101346.63;5074190;28;20455;-36
2023/11/15 09:20:29;;;;;;;;;;;;;;;10.06;100.00;101353.47;5075700;28;20074;-35
2023/11/15 09:22:55;;;;;;;16.88;4.85;;;;;;;9.87;100.00;101334.66;5074994;28;19931;-36
2023/11/15 09:25:26;;;;;;;;;;;;;;;10.06;100.00;101350.78;5075045;28;20119;-36
2023/11/15 09:27:54;;;;;;;16.50;4.90;;;;;;;10.09;100.00;101349.50;5074540;28;19937;-36
2023/11/15 09:30:21;;;;;;;13.82;4.78;;;;;;;10.15;100.00;101355.91;5075090;28;20115;-36
2023/11/15 09:32:49;;;;;;;14.68;3.97;;;;;;;10.18;100.00;101352.78;5074693;28;20113;-36
2023/11/15 09:35:15;;;;;;;10.52;4.32;;;;;;;10.30;100.00;101354.63;5075261;28;20071;-36
2023/11/15 09:37:42;;;;;;;16.27;4.28;;;;;;;10.25;100.00;101343.66;5074489;28;20056;-35
2023/11/15 09:40:11;;;;;;;12.75;4.10;;;;;;;10.37;100.00;101353.75;5074320;28;20036;-35
2023/11/15 09:42:46;;;;;;;11.82;3.72;;;;;;;10.39;100.00;101355.19;5074600;28;20033;-36
2023/11/15 09:45:16;;;;;;;18.73;4.80;;;;;;;10.46;100.00;101356.00;5074482;28;20058;-35
2023/11/15 09:47:44;;;;;;;16.20;4.03;;;;;;;10.48;100.00;101356.59;5075227;28;20115;-35
2023/11/15 09:50:13;;;;;;;13.70;3.63;;;;;;;10.50;100.00;101354.50;5075117;28;20025;-36
2023/11/15 09:52:40;;;;;;;13.32;3.33;;;;;;;10.45;100.00;101358.91;5075137;28;20032;-36
2023/11/15 09:55:07;;;;;;;14.35;3.85;;;;;;;10.55;100.00;101372.78;5073952;28;20029;-36
2023/11/15 09:57:33;;;;;;;12.30;3.75;;;;;;;10.54;100.00;101371.97;5074020;28;20083;-36
2023/11/15 09:59:59;;;;;;;10.68;3.50;;;;;;;10.56;100.00;101377.16;5074493;28;20032;-36
2023/11/15 10:02:28;;;;;;;12.05;3.70;;;;;;;10.56;100.00;101382.56;5075012;28;20463;-36
2023/11/15 10:05:19;;;;;;;9.38;3.15;;;;;;;10.59;100.00;101379.44;5075200;28;20109;-35
2023/11/15 10:07:51;;;;;;;13.13;3.00;;;;;;;10.56;100.00;101382.56;5074360;28;20028;-36
2023/11/15 10:10:21;;;;;;;12.20;3.15;;;;;;;10.55;100.00;101389.84;5074252;28;20369;-36
2023/11/15 10:12:50;;;;;;;11.63;3.25;;;;;;;10.50;100.00;101381.56;5074505;28;20426;-36
2023/11/15 10:15:16;;;;;;;13.95;2.97;;;;;;;10.51;100.00;101396.72;5073893;28;20111;-36
2023/11/15 10:17:43;;;;;;;12.27;3.33;;;;;;;10.50;100.00;101389.66;5074085;28;20484;-36
2023/11/15 10:20:20;;;;;;;9.27;2.60;;;;;;;10.45;100.00;101375.97;5074128;28;20028;-36
2023/11/15 10:22:46;;;;;;;9.57;2.70;;;;;;;10.50;100.00;101378.84;5073868;28;20151;-36
2023/11/15 10:25:13;;;;;;;14.27;3.65;;;;;;;10.57;100.00;101385.03;5074333;28;20066;-36
2023/11/15 10:27:40;;;;;;;9.88;2.63;;;;;;;10.56;100.00;101379.84;5074277;28;20039;-36
2023/11/15 10:30:16;;;;;;;;;;;;;;;10.69;100.00;101387.88;5074159;28;20077;-36
2023/11/15 10:32:45;;;;;;;10.02;2.60;;;;;;;10.72;100.00;101389.31;5074042;28;20319;-36
2023/11/15 10:35:22;;;;;;;10.73;2.58;;;;;;;10.75;100.00;101392.41;5073624;28;20154;-36
2023/11/15 10:37:48;;;;;;;10.70;2.63;;;;;;;10.74;100.00;101379.13;5073607;28;20476;-36
2023/11/15 10:40:14;;;;;;;8.65;2.20;;;;;;;10.88;100.00;101391.47;5073317;28;20106;-36
2023/11/15 10:42:40;;;;;;;14.32;3.47;;;;;;;10.83;100.00;101380.47;5073319;28;20404;-36
2023/11/15 10:45:12;;;;;;;14.48;2.97;;;;;;;10.94;100.00;101401.44;5073855;28;20036;-35
2023/11/15 10:47:44;;;;;;;10.00;2.88;;;;;;;10.81;100.00;101386.13;5073784;28;20044;-36
2023/11/15 10:50:15;;;;;;;11.65;3.45;;;;;;;11.01;100.00;101394.09;5073486;28;20384;-36
2023/11/15 10:52:43;;;;;;;12.30;2.80;;;;;;;11.06;100.00;101405.06;5073587;28;20376;-36
2023/11/15 10:55:10;;;;;;;9.55;2.65;;;;;;;10.98;100.00;101391.84;5073399;28;20060;-36
2023/11/15 10:57:38;;;;;;;9.90;3.05;;;;;;;11.03;100.00;101402.84;5074144;28;20091;-35
2023/11/15 11:00:09;;;;;;;9.52;2.80;;;;;;;10.94;100.00;101396.03;5074300;28;20381;-35
2023/11/15 11:02:40;;;;;;;11.35;3.22;;;;;;;11.04;100.00;101409.91;5073908;28;20066;-36
2023/11/15 11:05:07;;;;;;;10.73;2.53;;;;;;;11.08;100.00;101416.53;5073117;28;20032;-36
2023/11/15 11:07:46;;;;;;;11.77;2.95;;;;;;;11.17;100.00;101411.66;5073394;28;20028;-36
2023/11/15 11:10:41;;;;;;;10.82;2.83;;;;;;;11.27;100.00;101408.44;5073392;28;20036;-36
2023/11/15 11:13:21;;;;;;;18.70;2.83;;;;;;;11.30;100.00;101408.00;5072707;28;20048;-36
2023/11/15 11:15:47;;;;;;;8.20;2.33;;;;;;;11.31;100.00;101401.53;5072967;28;20032;-36
2023/11/15 11:18:22;;;;;;;9.35;2.30;;;;;;;11.32;100.00;101403.19;5074050;28;20028;-36